Latest Weather Observations for Mount Read

IDT60801

Issued at 6:31 pm EDT Tuesday 17 October 2017 (issued every 30 minutes, with the page automatically refreshed every 10 minutes)

About weather observations | Map of weather stations | Latest weather observations for TAS | Other Formats
Station Details ID: 097085 Name: MOUNT READ Lat: -41.84 Lon: 145.54 Height: 1119.5 m
Data from the previous 72 hours. | See also: Recent months at Mount Read
Date/Time
EDT
Temp
°C
App
Temp
°C
Dew
Point
°C
Rel
Hum
%
Delta-T
°C
Wind Press
QNH
hPa
Press
MSL
hPa
Rain since
9am
mm
Dir  Spd
km/h
Gust
km/h
Spd
kts
Gust
kts
17/06:30pm 17.7 14.0 9.6 59 4.5 N 19 24 10 13 1024.8 1026.1 0.0
17/06:00pm 18.1 13.6 10.0 59 4.5 N 24 33 13 18 1024.6 1025.9 0.0
17/05:30pm 18.5 14.3 9.8 57 4.9 NNE 22 30 12 16 1024.5 1025.7 0.0
17/05:00pm 20.0 16.3 9.6 51 5.8 N 19 28 10 15 1024.6 1025.9 0.0
17/04:30pm 19.7 16.6 8.7 49 6.1 N 15 20 8 11 1024.6 1025.9 0.0
17/04:00pm 19.0 16.9 8.1 49 5.9 NNW 9 17 5 9 1024.8 1026.1 0.0
17/03:30pm 20.6 17.5 8.9 47 6.5 NNE 15 26 8 14 1024.8 1026.1 0.0
17/03:00pm 19.1 16.2 8.1 49 6.0 N 13 22 7 12 1025.0 1026.3 0.0
17/02:30pm 20.1 17.4 8.8 48 6.3 NNW 13 24 7 13 1025.3 1026.5 0.0
17/02:00pm 20.4 17.7 10.2 52 5.8 N 15 28 8 15 1025.5 1026.8 0.0
17/01:30pm 18.8 15.4 9.3 54 5.3 NNW 17 33 9 18 1025.5 1026.8 0.0
17/01:00pm 20.1 16.3 9.7 51 5.8 N 20 30 11 16 1025.6 1026.9 0.0
17/12:30pm 19.3 15.6 9.5 53 5.5 N 19 28 10 15 1025.7 1027.0 0.0
17/12:00pm 17.9 14.0 8.7 55 5.0 N 19 30 10 16 1025.9 1027.2 0.0
17/11:30am 17.6 13.7 8.7 56 4.9 N 19 28 10 15 1025.9 1027.2 0.0
17/11:00am 16.5 12.5 8.2 58 4.4 N 19 28 10 15 1025.9 1027.2 0.0
17/10:30am 15.2 10.8 6.7 57 4.4 N 19 24 10 13 1025.9 1027.2 0.0
17/10:00am 15.2 11.2 6.5 56 4.5 N 17 24 9 13 1025.7 1027.0 0.0
17/09:30am 13.9 9.8 6.0 59 4.0 N 17 24 9 13 1025.6 1026.9 0.0
17/09:00am 12.3 7.6 5.0 61 3.6 NNW 19 26 10 14 1025.3 1026.5 0.0
17/08:30am 11.9 7.1 4.6 61 3.5 NNW 19 24 10 13 1025.3 1026.5 0.0
17/08:00am 11.3 6.3 4.5 63 3.3 NNW 20 28 11 15 1025.0 1026.3 0.0
17/07:30am 10.5 5.5 3.5 62 3.3 N 19 24 10 13 1024.9 1026.2 0.0
17/07:00am 9.9 4.2 3.0 62 3.2 N 22 28 12 15 1024.6 1025.9 0.0
17/06:30am 9.5 2.7 3.0 64 3.0 N 28 37 15 20 1023.9 1025.2 0.0
17/06:00am 9.9 2.6 2.7 61 3.3 N 30 37 16 20 1023.6 1024.8 0.0
17/05:30am 9.5 2.0 3.7 67 2.7 NNW 32 41 17 22 1023.4 1024.6 0.0
17/05:00am 8.8 2.6 4.4 74 2.1 N 26 35 14 19 1023.5 1024.7 0.0
17/04:30am 8.7 2.2 4.7 76 1.9 N 28 35 15 19 1023.6 1024.8 0.0
17/04:00am 8.8 1.4 4.2 73 2.2 N 32 37 17 20 1023.4 1024.6 0.0
17/03:30am 9.0 1.6 3.8 70 2.4 N 32 39 17 21 1023.6 1024.8 0.0
17/03:00am 9.3 1.7 3.7 68 2.6 N 33 44 18 24 1023.4 1024.6 0.0
17/02:30am 9.3 -0.5 3.5 67 2.7 N 44 56 24 30 1023.1 1024.4 0.0
17/02:00am 8.9 -0.2 1.8 61 3.1 N 39 46 21 25 1023.7 1024.9 0.0
17/01:30am 9.3 0.8 2.9 64 2.9 N 37 44 20 24 1024.0 1025.3 0.0
17/01:00am 9.9 2.1 2.7 61 3.3 N 33 41 18 22 1024.4 1025.6 0.0
17/12:30am 9.8 1.8 3.8 66 2.8 N 35 43 19 23 1024.5 1025.7 0.0
17/12:00am 10.4 2.8 3.7 63 3.1 N 33 39 18 21 1024.6 1025.9 0.0
 
Date/Time
EDT
Temp
°C
App
Temp
°C
Dew
Point
°C
Rel
Hum
%
Delta-T
°C
Wind Press
QNH
hPa
Press
MSL
hPa
Rain since
9am
mm
Dir  Spd
km/h
Gust
km/h
Spd
kts
Gust
kts
16/11:30pm 10.3 3.0 4.7 68 2.7 N 32 35 17 19 1024.8 1026.1 0.0
16/11:00pm 10.6 3.3 4.3 65 3.0 N 32 35 17 19 1024.9 1026.2 0.0
16/10:30pm 10.6 3.9 5.4 70 2.5 N 30 32 16 17 1025.4 1026.7 0.0
16/10:00pm 11.1 4.2 4.6 64 3.1 N 30 33 16 18 1025.5 1026.8 0.0
16/09:30pm 11.1 4.7 5.0 66 3.0 N 28 32 15 17 1025.5 1026.8 0.0
16/09:00pm 11.1 5.6 6.0 71 2.5 N 24 26 13 14 1025.7 1027.0 0.0
16/08:30pm 11.5 6.7 7.4 76 2.1 N 22 26 12 14 1025.7 1027.0 0.0
16/08:00pm 12.4 8.4 9.2 81 1.7 N 20 26 11 14 1025.5 1026.8 0.0
16/07:30pm 13.3 9.5 9.2 76 2.2 N 19 22 10 12 1025.3 1026.5 0.0
16/07:00pm 14.0 10.9 8.8 71 2.8 NNW 15 19 8 10 1025.3 1026.5 0.0
16/06:30pm 14.0 12.6 9.4 74 2.5 N 7 9 4 5 1025.3 1026.5 0.0
16/06:00pm 15.5 13.7 9.6 68 3.2 NNW 9 13 5 7 1025.1 1026.4 0.0
16/05:30pm 16.2 14.0 7.9 58 4.4 NW 9 15 5 8 1025.0 1026.3 0.0
16/05:00pm 17.1 15.4 8.3 56 4.7 NW 7 13 4 7 1025.3 1026.5 0.0
16/04:30pm 17.4 15.5 7.7 53 5.2 NW 7 13 4 7 1025.3 1026.5 0.0
16/04:00pm 17.5 15.9 7.8 53 5.2 NW 6 9 3 5 1025.3 1026.5 0.0
16/03:30pm 16.8 15.3 9.2 61 4.2 WSW 7 17 4 9 1025.4 1026.7 0.0
16/03:00pm 17.5 14.7 7.0 50 5.5 NE 11 19 6 10 1025.7 1027.0 0.0
16/02:30pm 18.1 14.8 6.3 46 6.2 NW 13 24 7 13 1025.8 1027.1 0.0
16/02:00pm 17.1 14.0 5.7 47 5.8 WNW 11 26 6 14 1026.0 1027.3 0.0
16/01:30pm 17.1 13.1 5.1 45 6.1 NNW 15 24 8 13 1026.3 1027.6 0.0
16/01:00pm 16.7 13.2 7.1 53 5.0 NNW 15 28 8 15 1026.4 1027.7 0.0
16/12:30pm 16.1 11.4 5.1 48 5.6 N 19 28 10 15 1026.5 1027.8 0.0
16/12:00pm 16.6 12.0 5.6 48 5.6 N 19 28 10 15 1026.6 1027.9 0.0
16/11:30am 15.1 10.6 6.1 55 4.6 N 19 28 10 15 1026.9 1028.3 0.0
16/11:00am 14.8 11.3 7.1 60 4.0 N 15 20 8 11 1027.1 1028.5 0.0
16/10:30am 13.2 9.9 6.5 64 3.4 N 13 17 7 9 1027.1 1028.5 0.0
16/10:00am 12.6 8.6 6.6 67 3.0 NNW 17 24 9 13 1027.0 1028.4 0.0
16/09:30am 11.8 7.7 6.3 69 2.8 NNW 17 26 9 14 1026.8 1028.1 0.0
16/09:00am 11.5 6.7 5.8 68 2.8 NNW 20 30 11 16 1026.6 1027.9 0.0
16/08:30am 10.5 5.3 5.7 72 2.4 NNW 22 28 12 15 1026.5 1027.8 0.0
16/08:00am 9.8 5.2 5.6 75 2.0 N 19 24 10 13 1026.4 1027.7 0.0
16/07:30am 9.7 4.9 5.7 76 2.0 N 20 24 11 13 1026.1 1027.5 0.0
16/07:00am 9.2 3.7 5.8 79 1.7 N 24 30 13 16 1025.8 1027.1 0.0
16/06:30am 8.8 3.6 5.5 80 1.6 N 22 28 12 15 1025.5 1026.8 0.0
16/06:00am 9.0 3.4 5.6 79 1.6 N 24 28 13 15 1025.3 1026.5 0.0
16/05:30am 9.3 3.3 5.3 76 1.9 N 26 32 14 17 1025.1 1026.4 0.0
16/05:00am 10.0 4.1 5.8 75 2.1 N 26 32 14 17 1025.0 1026.3 0.0
16/04:30am 10.1 4.8 4.9 70 2.5 N 22 26 12 14 1025.1 1026.4 0.0
16/04:00am 10.4 5.3 4.3 66 2.9 N 20 24 11 13 1025.4 1026.7 0.0
16/03:30am 10.9 6.4 2.0 54 4.0 N 15 20 8 11 1025.5 1026.8 0.0
16/03:00am 11.8 6.4 1.2 48 4.7 N 19 20 10 11 1025.7 1027.0 0.0
16/02:30am 12.5 8.2 0.9 45 5.2 N 13 15 7 8 1025.8 1027.1 0.0
16/02:00am 12.9 9.7 0.6 43 5.5 N 7 9 4 5 1026.1 1027.5 0.0
16/01:30am 13.3 10.0 0.3 41 5.8 N 7 7 4 4 1026.4 1027.7 0.0
16/01:00am 13.6 10.6 -1.6 35 6.5 N 4 6 2 3 1026.5 1027.8 0.0
16/12:30am 13.5 11.3 -1.3 36 6.4 CALM 0 6 0 3 1026.5 1027.8 0.0
16/12:00am 12.1 9.6 1.4 48 4.8 SE 4 6 2 3 1026.6 1027.9 0.0
 
Date/Time
EDT
Temp
°C
App
Temp
°C
Dew
Point
°C
Rel
Hum
%
Delta-T
°C
Wind Press
QNH
hPa
Press
MSL
hPa
Rain since
9am
mm
Dir  Spd
km/h
Gust
km/h
Spd
kts
Gust
kts
15/11:30pm 12.1 9.2 1.4 48 4.9 ESE 6 7 3 4 1026.6 1027.9 0.0
15/11:00pm 12.1 9.6 1.4 48 4.8 E 4 6 2 3 1026.6 1027.9 0.0
15/10:30pm 11.7 8.6 1.4 49 4.7 E 7 9 4 5 1026.6 1027.9 0.0
15/10:00pm 11.3 8.1 0.7 48 4.7 E 7 9 4 5 1026.5 1027.8 0.0
15/09:30pm 11.5 8.2 0.0 45 5.0 SE 7 9 4 5 1026.5 1027.8 0.0
15/09:00pm 11.4 7.7 0.2 46 4.9 SSE 9 11 5 6 1026.3 1027.6 0.0
15/08:30pm 11.1 6.4 -4.9 32 6.2 SSE 11 11 6 6 1025.9 1027.2 0.0
15/08:00pm 11.0 6.5 -0.5 45 4.9 S 13 13 7 7 1025.7 1027.0 0.0
15/07:30pm 10.7 5.9 0.2 48 4.6 S 15 17 8 9 1025.5 1026.8 0.0
15/07:00pm 11.2 7.6 0.3 47 4.8 SSW 9 11 5 6 1025.3 1026.5 0.0
15/06:30pm 12.1 8.9 -0.4 42 5.4 SW 6 7 3 4 1025.1 1026.4 0.0
15/06:00pm 12.3 9.5 2.2 50 4.6 WSW 6 9 3 5 1025.1 1026.4 0.0
15/05:30pm 13.9 11.6 5.0 55 4.4 WNW 6 9 3 5 1025.0 1026.3 0.0
15/05:00pm 13.8 12.0 7.3 65 3.4 W 6 9 3 5 1025.0 1026.3 0.0
15/04:30pm 13.3 10.8 6.6 64 3.4 SW 9 13 5 7 1025.0 1026.3 0.0
15/04:00pm 13.5 10.6 6.6 63 3.5 SW 11 13 6 7 1024.9 1026.2 0.0
15/03:30pm 13.9 11.7 7.7 66 3.3 SW 9 15 5 8 1024.9 1026.2 0.0
15/03:00pm 13.4 10.6 7.0 65 3.3 SW 11 17 6 9 1024.9 1026.2 0.0
15/02:30pm 13.0 10.1 6.6 65 3.3 SW 11 19 6 10 1024.9 1026.2 0.0
15/02:00pm 12.4 10.1 7.5 72 2.5 N 9 26 5 14 1024.9 1026.2 0.0
15/01:30pm 11.7 10.1 7.8 77 2.0 SSW 6 11 3 6 1024.7 1026.0 0.0
15/01:00pm 11.5 10.0 8.4 81 1.6 SE 6 13 3 7 1024.7 1026.0 0.0
15/12:30pm 11.8 9.7 8.3 79 1.8 S 9 15 5 8 1024.7 1026.0 0.0
15/12:00pm 11.1 7.9 7.0 76 2.1 SSW 13 20 7 11 1024.6 1025.9 0.0
15/11:30am 11.2 7.7 7.3 77 2.0 SW 15 24 8 13 1024.6 1025.9 0.0
15/11:00am 10.2 5.6 6.5 78 1.8 WSW 20 26 11 14 1024.6 1025.9 0.0
15/10:30am 8.8 5.5 4.6 75 2.0 SW 11 17 6 9 1024.5 1025.7 0.0
15/10:00am 6.8 3.5 4.5 85 1.1 SW 11 17 6 9 1024.4 1025.6 0.0
15/09:30am 7.0 1.6 2.5 73 2.0 WSW 20 28 11 15 1023.9 1025.2 0.0
15/09:00am 6.0 -0.6 4.2 88 0.8 WSW 28 35 15 19 1023.5 1024.7 0.2
15/08:30am 5.4 -2.0 3.9 90 0.7 W 32 35 17 19 1023.1 1024.4 0.2
15/08:00am 4.7 -2.8 4.7 100 0.0 W 33 39 18 21 1022.6 1023.8 0.2
15/07:30am 4.8 -3.0 4.8 100 0.0 W 35 41 19 22 1022.0 1023.2 0.2
15/07:00am 4.7 -3.1 4.7 100 0.0 W 35 41 19 22 1021.6 1022.8 0.2
15/06:30am 5.0 -3.2 5.0 100 0.0 W 37 43 20 23 1021.2 1022.4 0.2
15/06:00am 5.2 -2.9 5.1 99 0.0 W 37 41 20 22 1020.9 1022.1 0.2
15/05:30am 4.6 -3.3 4.6 100 0.0 W 35 41 19 22 1020.8 1022.0 0.0
15/05:00am 4.3 -3.6 4.3 100 0.0 W 35 39 19 21 1020.9 1022.1 0.0
15/04:30am 3.6 -4.1 3.6 100 0.0 W 33 37 18 20 1020.9 1022.1 0.0
15/04:00am 4.5 -3.4 4.5 100 0.0 WSW 35 39 19 21 1021.1 1022.3 0.0
15/03:30am 4.5 -3.0 4.5 100 0.0 W 33 37 18 20 1021.1 1022.3 0.0
15/03:00am 4.6 -2.9 4.6 100 0.0 W 33 37 18 20 1021.4 1022.5 0.0
15/02:30am 4.9 -2.5 4.9 100 0.0 WSW 33 37 18 20 1021.5 1022.6 0.0
15/02:00am 5.0 -2.4 5.0 100 0.0 WSW 33 39 18 21 1021.5 1022.6 0.0
15/01:30am 5.2 -2.2 5.2 100 0.0 W 33 37 18 20 1021.7 1022.9 0.0
15/01:00am 5.1 -2.1 5.1 100 0.0 W 32 35 17 19 1022.0 1023.2 0.0
15/12:30am 4.8 -2.6 4.8 100 0.0 W 33 37 18 20 1022.1 1023.3 0.0
15/12:00am 4.6 -2.7 4.6 100 0.0 W 32 35 17 19 1021.9 1023.1 0.0
 
Date/Time
EDT
Temp
°C
App
Temp
°C
Dew
Point
°C
Rel
Hum
%
Delta-T
°C
Wind Press
QNH
hPa
Press
MSL
hPa
Rain since
9am
mm
Dir  Spd
km/h
Gust
km/h
Spd
kts
Gust
kts
14/11:30pm 3.3 -3.5 3.3 100 0.0 W 28 32 15 17 1021.9 1023.1 0.0
14/11:00pm 2.6 -4.3 2.6 100 0.0 W 28 32 15 17 1022.0 1023.2 0.0
14/10:30pm 3.6 -2.7 3.6 100 0.0 W 26 30 14 16 1022.1 1023.3 0.0
14/10:00pm 4.1 -2.1 4.1 100 0.0 W 26 30 14 16 1022.2 1023.4 0.0
14/09:30pm 3.5 -2.6 2.9 96 0.3 W 24 30 13 16 1022.4 1023.6 0.0
14/09:00pm 2.6 -3.8 0.7 87 0.8 W 24 28 13 15 1022.2 1023.4 0.0
14/08:30pm 2.7 -3.4 0.6 86 0.9 W 22 26 12 14 1022.0 1023.2 0.0
14/08:00pm 3.2 -1.7 2.0 92 0.5 W 17 22 9 12 1021.9 1023.1 0.0
14/07:30pm 3.6 0.5 3.5 99 0.0 W 9 13 5 7 1022.0 1023.2 0.0
14/07:00pm 4.6 0.9 4.5 99 0.0 W 13 19 7 10 1021.8 1023.0 0.0

Other Formats:

Comma delimited format used in spreadsheet applications
http://www.bom.gov.au/fwo/IDT60801/IDT60801.95952.axf

JavaScript Object Notation format (JSON) in row-major order
http://www.bom.gov.au/fwo/IDT60801/IDT60801.95952.json